createdAt,value
2023-04-14T00:01:26.127Z,12.10
2023-04-14T00:06:27.929Z,12.10
2023-04-14T00:11:29.727Z,12.12
2023-04-14T00:16:31.780Z,12.06
2023-04-14T00:21:33.626Z,11.82
2023-04-14T00:26:35.494Z,11.63
2023-04-14T00:31:37.445Z,11.51
2023-04-14T00:36:39.500Z,11.44
2023-04-14T00:41:41.514Z,11.40
2023-04-14T00:46:43.952Z,11.35
2023-04-14T00:51:47.296Z,11.41
2023-04-14T00:56:54.173Z,11.40
2023-04-14T01:01:57.315Z,11.40
2023-04-14T01:06:59.254Z,11.48
2023-04-14T01:12:26.232Z,11.52
2023-04-14T01:17:39.204Z,11.51
2023-04-14T01:22:59.625Z,11.47
2023-04-14T01:28:32.634Z,11.37
2023-04-14T01:33:38.424Z,11.30
2023-04-14T01:38:43.830Z,11.25
2023-04-14T01:43:50.040Z,11.32
2023-04-14T01:48:52.227Z,11.38
2023-04-14T01:53:56.548Z,11.45
2023-04-14T01:58:59.989Z,11.53
2023-04-14T02:04:03.130Z,11.54
2023-04-14T02:09:10.437Z,11.55
2023-04-14T02:14:13.967Z,11.53
2023-04-14T02:19:20.378Z,11.51
2023-04-14T02:24:23.050Z,11.56
2023-04-14T02:29:26.427Z,11.57
2023-04-14T02:34:33.871Z,11.59
2023-04-14T02:39:43.565Z,11.60
2023-04-14T02:44:50.298Z,11.62
2023-04-14T02:49:54.297Z,11.57
2023-04-14T02:54:59.434Z,11.59
2023-04-14T03:00:02.434Z,11.62
2023-04-14T03:05:07.487Z,11.56
2023-04-14T03:10:20.179Z,11.56
2023-04-14T03:15:24.809Z,11.54
2023-04-14T03:20:27.439Z,11.52
2023-04-14T03:25:33.503Z,11.56
2023-04-14T03:30:41.512Z,11.46
2023-04-14T03:35:46.831Z,11.42
2023-04-14T03:40:50.488Z,11.39
2023-04-14T03:45:57.588Z,11.01
2023-04-14T03:51:02.771Z,10.38
2023-04-14T03:56:06.304Z,10.21
2023-04-14T04:01:08.902Z,10.05
2023-04-14T04:06:11.982Z,9.95
2023-04-14T04:11:18.873Z,10.06
2023-04-14T04:16:22.537Z,10.16
2023-04-14T04:21:27.471Z,10.09
2023-04-14T04:26:29.684Z,10.06
2023-04-14T04:31:33.723Z,10.16
2023-04-14T04:36:36.818Z,10.29
2023-04-14T04:41:38.786Z,10.41
2023-04-14T04:46:46.974Z,10.53
2023-04-14T04:51:50.769Z,10.57
2023-04-14T04:56:54.325Z,10.61
2023-04-14T05:01:56.494Z,10.66
2023-04-14T05:06:58.577Z,10.71
2023-04-14T05:12:00.718Z,10.71
2023-04-14T05:17:02.676Z,10.70
2023-04-14T05:22:04.456Z,10.69
2023-04-14T05:27:14.157Z,10.61
2023-04-14T05:32:16.445Z,10.52
2023-04-14T05:37:18.272Z,10.33
2023-04-14T05:42:20.054Z,10.05
2023-04-14T05:47:22.197Z,9.98
2023-04-14T05:52:24.327Z,10.01
2023-04-14T05:57:26.155Z,10.09
2023-04-14T06:02:28.042Z,10.24
2023-04-14T06:07:30.013Z,10.37
2023-04-14T06:12:31.818Z,10.45
2023-04-14T06:17:34.116Z,10.52
2023-04-14T06:22:35.935Z,10.55
2023-04-14T06:27:37.812Z,10.57
2023-04-14T06:32:39.610Z,10.56
2023-04-14T06:37:41.416Z,10.58
2023-04-14T06:42:43.222Z,10.63
2023-04-14T06:47:45.140Z,10.67
2023-04-14T06:52:46.990Z,10.69
2023-04-14T06:57:48.839Z,10.71
2023-04-14T07:02:50.733Z,10.71
2023-04-14T07:07:52.594Z,10.73
2023-04-14T07:12:54.452Z,10.70
2023-04-14T07:17:59.413Z,10.68
2023-04-14T07:23:01.902Z,10.65
2023-04-14T07:28:05.166Z,10.60
2023-04-14T07:33:07.156Z,10.60
2023-04-14T07:38:08.956Z,10.65
2023-04-14T07:43:11.674Z,10.67
2023-04-14T07:48:14.012Z,10.64
2023-04-14T07:53:16.000Z,10.62
2023-04-14T07:58:17.806Z,10.63
2023-04-14T08:03:19.759Z,10.64
2023-04-14T08:08:21.685Z,10.62
2023-04-14T08:13:23.577Z,10.64
2023-04-14T08:18:25.877Z,10.63
2023-04-14T08:23:27.802Z,10.60
2023-04-14T08:28:29.697Z,10.58
2023-04-14T08:33:31.487Z,10.59
2023-04-14T08:38:33.332Z,10.52
2023-04-14T08:43:38.196Z,10.46
2023-04-14T08:48:40.931Z,10.44
2023-04-14T08:53:45.242Z,10.48
2023-04-14T08:58:47.644Z,10.36
2023-04-14T09:03:50.629Z,10.32
2023-04-14T09:08:53.031Z,10.32
2023-04-14T09:13:56.993Z,10.38
2023-04-14T09:19:07.200Z,10.35
2023-04-14T09:24:12.014Z,10.33
2023-04-14T09:29:14.016Z,10.23
2023-04-14T09:34:21.085Z,10.16
2023-04-14T09:39:22.987Z,10.05
2023-04-14T09:44:24.842Z,10.03
2023-04-14T09:49:27.998Z,10.01
2023-04-14T09:54:30.428Z,10.05
2023-04-14T09:59:37.201Z,10.05
2023-04-14T10:04:39.142Z,9.93
2023-04-14T10:09:41.789Z,9.96
2023-04-14T10:14:44.498Z,10.02
2023-04-14T10:19:46.808Z,10.03
2023-04-14T10:24:49.908Z,9.98
2023-04-14T10:29:52.043Z,10.02
2023-04-14T10:34:58.912Z,10.06
2023-04-14T10:40:05.526Z,10.13
2023-04-14T10:45:08.977Z,10.15
2023-04-14T10:50:16.016Z,10.06
2023-04-14T10:55:24.624Z,10.04
2023-04-14T11:00:29.121Z,9.98
2023-04-14T11:05:34.236Z,10.04
2023-04-14T11:10:36.693Z,10.09
2023-04-14T11:15:57.279Z,10.05
2023-04-14T11:21:06.576Z,10.06
2023-04-14T11:26:10.794Z,10.01
2023-04-14T11:31:15.878Z,10.01
2023-04-14T11:36:17.809Z,9.97
2023-04-14T11:41:21.656Z,10.01
2023-04-14T11:46:23.595Z,10.05
2023-04-14T11:51:30.604Z,10.04
2023-04-14T11:56:33.264Z,9.98
2023-04-14T12:01:35.442Z,9.91
2023-04-14T12:06:39.390Z,9.91
2023-04-14T12:11:41.882Z,9.93
2023-04-14T12:16:43.869Z,10.02
2023-04-14T12:21:53.178Z,10.06
2023-04-14T12:26:56.095Z,10.05
2023-04-14T12:31:58.106Z,10.03
2023-04-14T12:37:05.907Z,10.08
2023-04-14T12:42:08.383Z,10.13
2023-04-14T12:47:10.297Z,10.18
2023-04-14T12:52:41.105Z,10.21
2023-04-14T12:57:43.055Z,10.22
2023-04-14T13:02:46.436Z,10.19
2023-04-14T13:07:48.882Z,10.23
2023-04-14T13:12:50.952Z,10.32
2023-04-14T13:17:52.759Z,10.32
2023-04-14T13:22:54.634Z,10.34
2023-04-14T13:27:56.440Z,10.33
2023-04-14T13:32:58.685Z,10.28
2023-04-14T13:38:01.640Z,10.31
2023-04-14T13:43:04.382Z,10.29
2023-04-14T13:48:06.255Z,10.31
2023-04-14T13:53:08.195Z,10.25
2023-04-14T13:58:10.134Z,10.21
2023-04-14T14:03:12.230Z,10.27
2023-04-14T14:08:15.932Z,10.37
2023-04-14T14:13:18.661Z,10.39
2023-04-14T14:18:20.638Z,10.40
2023-04-14T14:23:22.740Z,10.45
2023-04-14T14:28:24.602Z,10.46
2023-04-14T14:33:26.392Z,10.44
2023-04-14T14:38:28.492Z,10.45
2023-04-14T14:43:30.341Z,10.46
2023-04-14T14:48:32.122Z,10.53
2023-04-14T14:53:34.067Z,10.60
2023-04-14T14:58:36.262Z,10.69
2023-04-14T15:03:38.955Z,10.75
2023-04-14T15:08:41.193Z,10.73
2023-04-14T15:13:43.960Z,10.71
2023-04-14T15:18:45.832Z,10.72
2023-04-14T15:23:47.713Z,10.76
2023-04-14T15:28:49.536Z,10.74
2023-04-14T15:33:51.434Z,10.70
2023-04-14T15:38:53.394Z,10.74
2023-04-14T15:43:55.355Z,10.72
2023-04-14T15:48:57.246Z,10.69
2023-04-14T15:53:59.038Z,10.72
2023-04-14T15:59:01.128Z,10.74
2023-04-14T16:04:03.900Z,10.72
2023-04-14T16:09:06.406Z,10.70
2023-04-14T16:14:08.732Z,10.68
2023-04-14T16:19:10.702Z,10.70
2023-04-14T16:24:12.509Z,10.64
2023-04-14T16:29:14.307Z,10.65
2023-04-14T16:34:18.334Z,10.66
2023-04-14T16:39:22.506Z,10.68
2023-04-14T16:44:24.347Z,10.65
2023-04-14T16:49:26.153Z,10.56
2023-04-14T16:54:27.991Z,10.51
2023-04-14T16:59:31.097Z,10.48
2023-04-14T17:04:33.202Z,10.45
2023-04-14T17:09:35.879Z,10.44
2023-04-14T17:14:38.831Z,10.42
2023-04-14T17:19:41.180Z,10.39
2023-04-14T17:24:44.168Z,10.40
2023-04-14T17:29:46.640Z,10.35
2023-04-14T17:34:49.476Z,10.30
2023-04-14T17:39:53.298Z,10.27
2023-04-14T17:44:55.964Z,10.26
2023-04-14T17:49:57.939Z,10.21
2023-04-14T17:55:00.335Z,10.19
2023-04-14T18:00:04.453Z,10.19
2023-04-14T18:05:14.906Z,10.20
2023-04-14T18:10:18.168Z,10.23
2023-04-14T18:15:20.551Z,10.16
2023-04-14T18:20:25.539Z,10.08
2023-04-14T18:25:28.019Z,10.06
2023-04-14T18:30:30.553Z,10.01
2023-04-14T18:35:33.854Z,9.97
2023-04-14T18:40:38.515Z,9.98
2023-04-14T18:45:45.253Z,10.02
2023-04-14T18:50:47.912Z,10.03
2023-04-14T18:55:50.042Z,10.02
2023-04-14T19:00:52.354Z,10.03
2023-04-14T19:05:55.768Z,10.12
2023-04-14T19:10:59.377Z,10.12
2023-04-14T19:16:09.280Z,10.16
2023-04-14T19:21:11.587Z,10.18
2023-04-14T19:26:13.797Z,10.21
2023-04-14T19:31:20.313Z,10.21
2023-04-14T19:36:22.985Z,10.23
2023-04-14T19:41:25.459Z,10.18
2023-04-14T19:46:28.489Z,10.19
2023-04-14T19:51:32.301Z,10.19
2023-04-14T19:56:35.356Z,10.15
2023-04-14T20:01:38.025Z,10.16
2023-04-14T20:06:41.524Z,10.19
2023-04-14T20:11:43.939Z,10.15
2023-04-14T20:16:46.503Z,10.13
2023-04-14T20:21:49.388Z,10.07
2023-04-14T20:26:51.753Z,10.08
2023-04-14T20:31:54.044Z,9.99
2023-04-14T20:36:56.148Z,9.98
2023-04-14T20:41:58.055Z,9.95
2023-04-14T20:47:00.620Z,9.93
2023-04-14T20:52:02.758Z,9.93
2023-04-14T20:57:05.650Z,9.93
2023-04-14T21:02:08.350Z,9.94
2023-04-14T21:07:10.292Z,9.99
2023-04-14T21:12:14.747Z,10.00
2023-04-14T21:17:18.596Z,9.99
2023-04-14T21:22:20.451Z,9.96
2023-04-14T21:27:22.301Z,9.92
2023-04-14T21:32:24.164Z,9.93
2023-04-14T21:37:26.204Z,9.89
2023-04-14T21:42:27.963Z,9.89
2023-04-14T21:47:29.772Z,9.90
2023-04-14T21:52:31.588Z,9.94
2023-04-14T21:57:48.109Z,9.91
2023-04-14T22:02:51.699Z,9.87
2023-04-14T22:07:53.937Z,9.81
2023-04-14T22:12:55.724Z,9.74
2023-04-14T22:17:58.626Z,9.78
2023-04-14T22:23:00.973Z,9.83
2023-04-14T22:28:02.795Z,9.79
2023-04-14T22:33:04.663Z,9.86
2023-04-14T22:38:07.103Z,9.77
2023-04-14T22:43:09.061Z,9.70
2023-04-14T22:48:11.720Z,9.60
2023-04-14T22:53:13.590Z,9.68
2023-04-14T22:58:17.723Z,9.56
2023-04-14T23:03:19.627Z,9.54
2023-04-14T23:08:21.518Z,9.44
2023-04-14T23:13:23.385Z,9.34
2023-04-14T23:18:27.382Z,9.31
2023-04-14T23:23:30.016Z,9.22
2023-04-14T23:28:31.852Z,9.21
2023-04-14T23:33:33.646Z,9.25
2023-04-14T23:38:35.449Z,9.29
2023-04-14T23:43:37.361Z,9.30
2023-04-14T23:48:39.135Z,9.40
2023-04-14T23:53:41.009Z,9.43
2023-04-14T23:58:43.209Z,9.40
